Camp Shelby, Mississippi
Current Conditions -  °F | °C
As of 10:53 AM on Sunday 21 Dec 2014 (Local Time) from KHBG Reporting Station
Overcast Overcast  
Wind Chill: 50°   Ceiling: 500
Heat Index: 50°   Visibility: 7mi
Dew Point: 46°   Wind: 6mph
Humidity: 86%   Direction: 50°NE
Pressure: 30.14"   Gusts: NA
Location:  31.1996°N, 89.2694°W
Report Text: KHBG 211653Z AUTO 05005KT 7SM OVC005 10/08 A3014 RMK AO2 SLP204 T01000078
Loading
Personal Weather Stations






























Interactive Weather Map New forecast layout! Learn more

10-Day Weather Forecast

Advertisements
Track Severe Weather on mobile